Monticello Municipal Ellis Field Monticello US
ICAO: KLLQ
IATA: LLQ
Category: Medium
Scheduled Services: No

Elevation: 270 ft
TransAlt. 18000 ft.

Airport Communications:
ASOS:133.325
MEMPHIS CNTR:135.875
JONESBORO RDO:122.1
CTAF/UNICOM:122.8

KLLQ Zoom In..

Runways:

(A) RW 03 length 5020 ft width 75 ft
---- / hdg 31

(B) RW 21 length 5020 ft width 75 ft
---- / hdg 211

Location; KLLQ
Day. 24 / Time. 13.10 Zulu
* Altimeter: 30.12
* Temperature: 23° c. 73.4°f.
* Wind from: 000° Speed 00 kn.
Dewpoint: 22° c.
Visibility: 10 Statute Miles.
Clouds: Few 400 ft.

KLLQ 241310Z AUTO 00000KT 10SM FEW004 23/22 A3012 RMK AO2 T02330222


Wind - Calm.

 
 
jpsmedia.com for Web Design SOUNDCLOUD worldairports.se 2018   terms of use